createdAt,value
2019-06-10T00:00:31.586Z,3.17
2019-06-10T00:03:02.834Z,3.30
2019-06-10T00:05:31.990Z,2.73
2019-06-10T00:08:21.016Z,3.20
2019-06-10T00:10:51.083Z,2.87
2019-06-10T00:13:21.037Z,3.30
2019-06-10T00:15:51.589Z,3.63
2019-06-10T00:18:35.230Z,2.97
2019-06-10T00:20:51.918Z,3.50
2019-06-10T00:23:21.422Z,2.93
2019-06-10T00:25:51.567Z,2.70
2019-06-10T00:28:21.772Z,3.30
2019-06-10T00:30:51.673Z,3.67
2019-06-10T00:33:21.633Z,2.70
2019-06-10T00:35:51.523Z,2.80
2019-06-10T00:38:21.522Z,3.13
2019-06-10T00:40:51.382Z,3.10
2019-06-10T00:43:21.430Z,3.07
2019-06-10T00:45:51.426Z,3.20
2019-06-10T00:48:26.056Z,3.37
2019-06-10T00:50:53.359Z,4.57
2019-06-10T00:53:42.387Z,4.23
2019-06-10T00:56:14.001Z,2.80
2019-06-10T00:58:42.867Z,3.30
2019-06-10T01:01:14.442Z,3.30
2019-06-10T01:03:43.038Z,3.23
2019-06-10T01:06:15.136Z,3.27
2019-06-10T01:08:43.339Z,3.33
2019-06-10T01:11:23.674Z,3.40
2019-06-10T01:13:50.665Z,3.17
2019-06-10T01:16:21.483Z,3.70
2019-06-10T01:18:53.187Z,3.53
2019-06-10T01:21:21.819Z,3.33
2019-06-10T01:23:51.417Z,3.10
2019-06-10T01:26:21.504Z,3.33
2019-06-10T01:28:51.639Z,3.40
2019-06-10T01:31:24.217Z,3.63
2019-06-10T01:33:52.095Z,3.20
2019-06-10T01:36:21.334Z,3.47
2019-06-10T01:38:51.119Z,3.47
2019-06-10T01:41:40.911Z,3.23
2019-06-10T01:44:12.467Z,3.13
2019-06-10T01:47:01.087Z,3.60
2019-06-10T01:49:30.892Z,3.10
2019-06-10T01:52:01.622Z,3.70
2019-06-10T01:54:51.559Z,4.10
2019-06-10T01:57:21.949Z,3.20
2019-06-10T01:59:51.473Z,3.33
2019-06-10T02:02:23.907Z,3.30
2019-06-10T02:04:53.456Z,3.93
2019-06-10T02:07:23.372Z,3.60
2019-06-10T02:09:52.864Z,3.50
2019-06-10T02:12:24.106Z,3.33
2019-06-10T02:14:53.120Z,3.50
2019-06-10T02:17:41.814Z,3.93
2019-06-10T02:20:13.905Z,3.40
2019-06-10T02:22:42.598Z,3.67
2019-06-10T02:25:13.476Z,3.47
2019-06-10T02:27:43.207Z,3.67
2019-06-10T02:30:44.137Z,3.40
2019-06-10T02:33:02.863Z,3.90
2019-06-10T02:35:44.036Z,3.70
2019-06-10T02:38:05.232Z,3.77
2019-06-10T02:40:36.714Z,3.70
2019-06-10T02:43:06.706Z,3.70
2019-06-10T02:45:55.342Z,3.70
2019-06-10T02:48:30.386Z,3.50
2019-06-10T02:51:04.494Z,3.40
2019-06-10T02:53:36.388Z,3.43
2019-06-10T02:56:07.919Z,4.37
2019-06-10T02:58:39.518Z,4.40
2019-06-10T03:01:08.580Z,3.63
2019-06-10T03:03:44.598Z,4.00
2019-06-10T03:06:34.683Z,3.63
2019-06-10T03:08:59.134Z,4.10
2019-06-10T03:11:33.436Z,4.20
2019-06-10T03:13:59.303Z,4.13
2019-06-10T03:16:35.836Z,3.77
2019-06-10T03:19:05.324Z,3.73
2019-06-10T03:21:34.551Z,4.00
2019-06-10T03:24:03.896Z,4.03
2019-06-10T03:26:33.200Z,3.47
2019-06-10T03:29:02.790Z,3.83
2019-06-10T03:31:40.900Z,4.10
2019-06-10T03:34:05.068Z,4.07
2019-06-10T03:36:34.278Z,3.97
2019-06-10T03:39:05.606Z,3.80
2019-06-10T03:41:54.210Z,4.00
2019-06-10T03:44:25.116Z,3.93
2019-06-10T03:46:54.372Z,3.87
2019-06-10T03:49:24.298Z,4.60
2019-06-10T03:51:54.643Z,4.30
2019-06-10T03:54:26.402Z,3.93
2019-06-10T03:56:54.940Z,3.53
2019-06-10T03:59:26.507Z,3.80
2019-06-10T04:01:55.238Z,3.40
2019-06-10T04:04:25.593Z,4.10
2019-06-10T04:06:55.494Z,3.43
2019-06-10T04:09:25.828Z,4.23
2019-06-10T04:11:55.849Z,4.13
2019-06-10T04:14:44.482Z,3.77
2019-06-10T04:17:13.765Z,3.30
2019-06-10T04:19:43.064Z,4.07
2019-06-10T04:22:13.056Z,3.73
2019-06-10T04:24:43.116Z,3.90
2019-06-10T04:27:12.491Z,4.10
2019-06-10T04:29:42.180Z,3.73
2019-06-10T04:32:12.230Z,3.80
2019-06-10T04:34:43.323Z,3.90
2019-06-10T04:37:12.729Z,4.10
2019-06-10T04:39:42.742Z,4.23
2019-06-10T04:42:12.975Z,4.23
2019-06-10T04:44:42.507Z,4.17
2019-06-10T04:47:12.090Z,4.27
2019-06-10T04:49:42.826Z,3.90
2019-06-10T04:52:12.310Z,3.80
2019-06-10T04:54:42.130Z,3.47
2019-06-10T04:57:12.807Z,3.60
2019-06-10T04:59:42.874Z,3.93
2019-06-10T05:02:12.833Z,3.63
2019-06-10T05:04:42.658Z,3.90
2019-06-10T05:07:12.556Z,3.90
2019-06-10T05:09:42.320Z,4.20
2019-06-10T05:12:12.118Z,4.67
2019-06-10T05:14:43.277Z,4.40
2019-06-10T05:17:12.834Z,4.20
2019-06-10T05:20:02.566Z,4.13
2019-06-10T05:22:32.814Z,4.83
2019-06-10T05:25:02.757Z,5.17
2019-06-10T05:27:52.235Z,3.93
2019-06-10T05:30:25.047Z,5.03
2019-06-10T05:32:53.208Z,4.57
2019-06-10T05:35:28.468Z,3.67
2019-06-10T05:38:17.727Z,4.03
2019-06-10T05:40:47.075Z,5.13
2019-06-10T05:43:16.298Z,5.00
2019-06-10T05:45:45.523Z,4.93
2019-06-10T05:48:16.870Z,5.87
2019-06-10T05:50:59.301Z,5.30
2019-06-10T05:53:16.760Z,4.87
2019-06-10T05:56:05.358Z,5.50
2019-06-10T05:58:53.968Z,4.80
2019-06-10T06:01:24.284Z,4.80
2019-06-10T06:04:03.071Z,5.10
2019-06-10T06:06:33.432Z,5.00
2019-06-10T06:09:02.394Z,5.10
2019-06-10T06:11:33.765Z,5.83
2019-06-10T06:14:02.835Z,4.87
2019-06-10T06:16:33.106Z,4.73
2019-06-10T06:19:03.374Z,5.83
2019-06-10T06:21:40.331Z,5.07
2019-06-10T06:24:04.170Z,5.60
2019-06-10T06:26:37.628Z,4.90
2019-06-10T06:29:04.703Z,4.27
2019-06-10T06:31:36.090Z,5.17
2019-06-10T06:34:04.995Z,5.17
2019-06-10T06:36:36.424Z,5.20
2019-06-10T06:39:07.214Z,5.20
2019-06-10T06:41:55.816Z,5.30
2019-06-10T06:44:25.048Z,6.47
2019-06-10T06:47:13.648Z,5.90
2019-06-10T06:49:43.182Z,6.10
2019-06-10T06:52:12.786Z,6.33
2019-06-10T06:54:42.560Z,6.70
2019-06-10T06:57:13.054Z,6.00
2019-06-10T06:59:43.206Z,6.40
2019-06-10T07:02:12.707Z,5.93
2019-06-10T07:04:43.381Z,6.10
2019-06-10T07:07:14.727Z,6.50
2019-06-10T07:10:04.930Z,6.30
2019-06-10T07:12:54.982Z,6.30
2019-06-10T07:15:31.815Z,6.73
2019-06-10T07:18:02.313Z,6.30
2019-06-10T07:20:33.338Z,6.90
2019-06-10T07:23:02.800Z,7.47
2019-06-10T07:25:34.179Z,6.37
2019-06-10T07:28:03.299Z,6.57
2019-06-10T07:30:36.954Z,6.63
2019-06-10T07:33:03.725Z,7.07
2019-06-10T07:35:34.557Z,5.27
2019-06-10T07:38:04.290Z,5.80
2019-06-10T07:40:35.022Z,6.17
2019-06-10T07:43:04.577Z,6.87
2019-06-10T07:45:37.789Z,5.47
2019-06-10T07:48:24.277Z,6.30
2019-06-10T07:50:53.636Z,7.40
2019-06-10T07:53:22.962Z,6.17
2019-06-10T07:55:53.650Z,6.50
2019-06-10T07:58:23.093Z,5.73
2019-06-10T08:00:53.426Z,6.13
2019-06-10T08:03:23.041Z,5.77
2019-06-10T08:05:52.645Z,6.20
2019-06-10T08:08:23.537Z,5.60
2019-06-10T08:10:53.054Z,6.37
2019-06-10T08:13:22.686Z,5.57
2019-06-10T08:15:53.273Z,5.87
2019-06-10T08:18:22.722Z,5.93
2019-06-10T08:20:52.833Z,6.00
2019-06-10T08:23:44.722Z,6.63
2019-06-10T08:26:12.958Z,6.33
2019-06-10T08:28:45.101Z,5.47
2019-06-10T08:31:13.290Z,5.40
2019-06-10T08:33:45.386Z,5.13
2019-06-10T08:36:13.762Z,5.37
2019-06-10T08:38:46.636Z,5.77
2019-06-10T08:41:14.099Z,5.67
2019-06-10T08:43:46.143Z,5.70
2019-06-10T08:46:14.459Z,4.30
2019-06-10T08:48:46.147Z,5.33
2019-06-10T08:51:14.652Z,8.13
2019-06-10T08:53:46.495Z,5.43
2019-06-10T08:56:14.932Z,7.42
2019-06-10T08:58:47.382Z,4.53
2019-06-10T09:01:15.183Z,4.90
2019-06-10T09:04:04.250Z,6.80
2019-06-10T09:06:33.585Z,11.03
2019-06-10T09:09:04.524Z,5.43
2019-06-10T09:11:33.787Z,7.80
2019-06-10T09:14:05.111Z,8.47
2019-06-10T09:16:34.377Z,4.50
2019-06-10T09:19:03.814Z,4.70
2019-06-10T09:21:33.265Z,4.93
2019-06-10T09:24:03.956Z,5.30
2019-06-10T09:26:54.941Z,4.93
2019-06-10T09:29:23.687Z,4.50
2019-06-10T09:31:55.594Z,5.10
2019-06-10T09:34:23.972Z,4.07
2019-06-10T09:36:56.610Z,4.50
2019-06-10T09:39:24.390Z,7.17
2019-06-10T09:42:01.134Z,4.90
2019-06-10T09:44:24.811Z,4.33
2019-06-10T09:46:56.455Z,7.03
2019-06-10T09:49:26.895Z,4.27
2019-06-10T09:51:57.641Z,4.60
2019-06-10T09:54:27.076Z,4.33
2019-06-10T09:56:56.414Z,4.97
2019-06-10T09:59:25.838Z,5.07
2019-06-10T10:01:58.886Z,6.77
2019-06-10T10:04:27.019Z,4.60
2019-06-10T10:06:57.443Z,5.10
2019-06-10T10:09:27.157Z,5.50
2019-06-10T10:11:56.467Z,5.13
2019-06-10T10:14:25.722Z,4.13
2019-06-10T10:17:14.400Z,4.30
2019-06-10T10:19:46.859Z,5.00
2019-06-10T10:22:14.600Z,3.80
2019-06-10T10:24:44.613Z,4.03
2019-06-10T10:27:14.920Z,4.77
2019-06-10T10:29:47.105Z,3.60
2019-06-10T10:32:15.336Z,4.33
2019-06-10T10:34:47.012Z,4.40
2019-06-10T10:37:15.627Z,3.93
2019-06-10T10:39:45.224Z,4.07
2019-06-10T10:42:14.843Z,3.67
2019-06-10T10:44:46.638Z,4.67
2019-06-10T10:47:15.190Z,4.33
2019-06-10T10:49:44.991Z,4.30
2019-06-10T10:52:14.440Z,4.40
2019-06-10T10:54:45.104Z,4.50
2019-06-10T10:57:14.667Z,5.80
2019-06-10T10:59:45.085Z,8.00
2019-06-10T11:02:15.003Z,4.40
2019-06-10T11:04:49.685Z,5.00
2019-06-10T11:07:22.267Z,4.77
2019-06-10T11:09:55.199Z,5.50
2019-06-10T11:12:24.501Z,4.80
2019-06-10T11:14:57.040Z,4.23
2019-06-10T11:17:25.822Z,4.30
2019-06-10T11:19:55.953Z,3.97
2019-06-10T11:22:25.384Z,4.63
2019-06-10T11:24:56.507Z,4.83
2019-06-10T11:27:25.587Z,5.03
2019-06-10T11:30:14.343Z,4.50
2019-06-10T11:32:43.685Z,3.87
2019-06-10T11:35:13.242Z,3.83
2019-06-10T11:37:42.892Z,4.30
2019-06-10T11:40:13.538Z,4.23
2019-06-10T11:42:43.718Z,4.43
2019-06-10T11:45:13.521Z,4.60
2019-06-10T11:47:42.796Z,4.93
2019-06-10T11:50:13.157Z,4.90
2019-06-10T11:52:43.325Z,5.67
2019-06-10T11:55:18.774Z,5.70
2019-06-10T11:57:44.248Z,4.90
2019-06-10T12:00:17.441Z,4.53
2019-06-10T12:02:46.459Z,5.00
2019-06-10T12:05:35.131Z,5.03
2019-06-10T12:08:04.586Z,4.40
2019-06-10T12:10:34.113Z,4.90
2019-06-10T12:13:07.151Z,4.37
2019-06-10T12:16:09.642Z,5.10
2019-06-10T12:18:08.571Z,4.90
2019-06-10T12:20:36.691Z,4.90
2019-06-10T12:23:06.020Z,4.40
2019-06-10T12:25:39.524Z,4.80
2019-06-10T12:28:07.646Z,4.60
2019-06-10T12:30:37.395Z,4.50
2019-06-10T12:33:06.614Z,4.63
2019-06-10T12:35:35.890Z,4.47
2019-06-10T12:38:24.483Z,5.53
2019-06-10T12:40:56.841Z,8.20
2019-06-10T12:43:25.024Z,5.17
2019-06-10T12:45:55.931Z,4.67
2019-06-10T12:48:25.289Z,4.40
2019-06-10T12:50:57.309Z,4.83
2019-06-10T12:53:26.312Z,4.00
2019-06-10T12:55:57.253Z,4.67
2019-06-10T12:58:26.725Z,4.70
2019-06-10T13:00:57.133Z,4.70
2019-06-10T13:03:26.549Z,4.10
2019-06-10T13:05:59.590Z,4.90
2019-06-10T13:08:33.163Z,4.10
2019-06-10T13:11:04.436Z,3.97
2019-06-10T13:13:33.805Z,4.67
2019-06-10T13:16:06.780Z,5.03
2019-06-10T13:18:34.111Z,4.67
2019-06-10T13:21:10.918Z,3.80
2019-06-10T13:23:35.429Z,3.97
2019-06-10T13:26:11.907Z,4.57
2019-06-10T13:28:36.445Z,4.50
2019-06-10T13:31:08.010Z,4.50
2019-06-10T13:33:36.715Z,4.53
2019-06-10T13:36:08.250Z,4.40
2019-06-10T13:38:36.983Z,4.43
2019-06-10T13:41:07.802Z,4.33
2019-06-10T13:43:37.289Z,5.00
2019-06-10T13:46:08.994Z,5.30
2019-06-10T13:48:37.610Z,5.00
2019-06-10T13:51:10.128Z,4.57
2019-06-10T13:53:37.795Z,4.13
2019-06-10T13:56:30.425Z,4.23
2019-06-10T13:58:38.043Z,5.20
2019-06-10T14:01:10.102Z,4.83
2019-06-10T14:03:38.294Z,4.53
2019-06-10T14:06:20.817Z,5.10
2019-06-10T14:08:57.864Z,4.30
2019-06-10T14:11:30.090Z,4.80
2019-06-10T14:13:58.154Z,4.67
2019-06-10T14:16:27.539Z,4.20
2019-06-10T14:18:56.784Z,3.80
2019-06-10T14:21:26.557Z,4.30
2019-06-10T14:23:55.917Z,4.23
2019-06-10T14:26:36.651Z,4.60
2019-06-10T14:28:56.329Z,4.67
2019-06-10T14:31:39.406Z,4.93
2019-06-10T14:33:56.718Z,5.40
2019-06-10T14:36:26.034Z,5.67
2019-06-10T14:38:55.305Z,3.80
2019-06-10T14:41:34.973Z,4.50
2019-06-10T14:44:04.600Z,4.37
2019-06-10T14:46:33.996Z,4.60
2019-06-10T14:49:04.606Z,4.70
2019-06-10T14:51:34.046Z,6.17
2019-06-10T14:54:03.360Z,4.67
2019-06-10T14:56:33.275Z,4.47
2019-06-10T14:59:02.780Z,4.00
2019-06-10T15:01:32.233Z,4.50
2019-06-10T15:04:02.997Z,4.30
2019-06-10T15:06:33.877Z,5.57
2019-06-10T15:09:05.063Z,4.90
2019-06-10T15:11:34.435Z,5.00
2019-06-10T15:14:03.942Z,6.57
2019-06-10T15:16:33.696Z,6.30
2019-06-10T15:19:28.316Z,4.33
2019-06-10T15:21:53.354Z,4.87
2019-06-10T15:24:23.758Z,5.10
2019-06-10T15:27:09.101Z,5.03
2019-06-10T15:29:24.441Z,4.20
2019-06-10T15:32:08.920Z,4.67
2019-06-10T15:34:24.852Z,4.43
2019-06-10T15:36:54.212Z,4.50
2019-06-10T15:39:24.284Z,4.63
2019-06-10T15:41:55.551Z,4.70
2019-06-10T15:44:47.866Z,5.00
2019-06-10T15:46:55.757Z,5.10
2019-06-10T15:49:26.227Z,5.43
2019-06-10T15:51:55.654Z,5.60
2019-06-10T15:54:44.256Z,6.70
2019-06-10T15:57:27.296Z,7.97
2019-06-10T15:59:44.591Z,10.07
2019-06-10T16:02:16.120Z,10.57
2019-06-10T16:04:44.916Z,11.10
2019-06-10T16:07:33.590Z,11.97
2019-06-10T16:10:03.123Z,11.40
2019-06-10T16:12:33.037Z,13.67
2019-06-10T16:15:26.077Z,15.20
2019-06-10T16:17:53.656Z,14.87
2019-06-10T16:20:23.565Z,14.93
2019-06-10T16:23:13.779Z,13.27
2019-06-10T16:25:43.204Z,10.73
2019-06-10T16:28:32.839Z,11.60
2019-06-10T16:31:02.960Z,11.90
2019-06-10T16:33:33.912Z,12.23
2019-06-10T16:36:25.894Z,10.93
2019-06-10T16:38:53.804Z,10.87
2019-06-10T16:41:26.072Z,10.80
2019-06-10T16:43:54.103Z,10.67
2019-06-10T16:46:24.674Z,11.00
2019-06-10T16:48:54.139Z,10.93
2019-06-10T16:51:43.021Z,8.87
2019-06-10T16:54:13.011Z,8.30
2019-06-10T16:56:43.540Z,8.37
2019-06-10T16:59:13.162Z,8.20
2019-06-10T17:01:42.865Z,8.47
2019-06-10T17:04:12.580Z,8.03
2019-06-10T17:06:42.320Z,9.20
2019-06-10T17:09:13.447Z,8.13
2019-06-10T17:11:43.015Z,8.40
2019-06-10T17:14:12.677Z,8.47
2019-06-10T17:16:42.081Z,9.63
2019-06-10T17:19:11.565Z,9.40
2019-06-10T17:21:42.191Z,8.83
2019-06-10T17:24:12.760Z,8.73
2019-06-10T17:26:42.567Z,9.70
2019-06-10T17:29:12.047Z,9.83
2019-06-10T17:31:42.568Z,10.30
2019-06-10T17:34:13.105Z,9.80
2019-06-10T17:36:42.830Z,11.00
2019-06-10T17:39:12.596Z,11.30
2019-06-10T17:41:42.700Z,11.30
2019-06-10T17:44:14.425Z,11.97
2019-06-10T17:46:43.880Z,11.60
2019-06-10T17:49:13.237Z,13.17
2019-06-10T17:51:43.266Z,13.30
2019-06-10T17:54:13.088Z,13.87
2019-06-10T17:56:42.769Z,12.13
2019-06-10T17:59:34.084Z,13.57
2019-06-10T18:02:03.097Z,13.27
2019-06-10T18:04:33.705Z,11.90
2019-06-10T18:07:03.307Z,11.40
2019-06-10T18:09:35.433Z,11.13
2019-06-10T18:12:05.513Z,13.33
2019-06-10T18:14:36.266Z,13.33
2019-06-10T18:17:05.810Z,11.23
2019-06-10T18:19:37.321Z,12.03
2019-06-10T18:22:06.168Z,12.40
2019-06-10T18:24:35.507Z,13.43
2019-06-10T18:27:04.879Z,12.30
2019-06-10T18:29:35.873Z,9.40
2019-06-10T18:32:05.242Z,7.80
2019-06-10T18:34:37.486Z,7.60
2019-06-10T18:37:05.596Z,5.90
2019-06-10T18:39:35.662Z,5.20
2019-06-10T18:42:05.348Z,5.87
2019-06-10T18:44:37.100Z,6.73
2019-06-10T18:47:05.751Z,5.40
2019-06-10T18:49:36.235Z,4.80
2019-06-10T18:52:06.396Z,4.53
2019-06-10T18:54:37.221Z,5.20
2019-06-10T18:57:06.812Z,5.10
2019-06-10T18:59:37.691Z,4.43
2019-06-10T19:02:26.513Z,8.97
2019-06-10T19:04:55.788Z,9.63
2019-06-10T19:07:25.055Z,4.60
2019-06-10T19:09:54.353Z,4.90
2019-06-10T19:12:23.674Z,4.67
2019-06-10T19:14:53.084Z,4.10
2019-06-10T19:17:23.172Z,4.63
2019-06-10T19:19:53.306Z,3.53
2019-06-10T19:22:23.007Z,3.90
2019-06-10T19:24:52.978Z,3.60
2019-06-10T19:27:23.698Z,3.40
2019-06-10T19:29:55.876Z,3.77
2019-06-10T19:32:24.456Z,3.50
2019-06-10T19:34:53.825Z,3.13
2019-06-10T19:37:23.091Z,3.60
2019-06-10T19:40:12.421Z,3.47
2019-06-10T19:42:44.487Z,3.30
2019-06-10T19:45:13.342Z,3.33
2019-06-10T19:47:45.571Z,4.10
2019-06-10T19:50:13.923Z,4.43
2019-06-10T19:52:45.279Z,3.37
2019-06-10T19:55:14.501Z,3.87
2019-06-10T19:57:43.814Z,3.87
2019-06-10T20:00:13.935Z,3.43
2019-06-10T20:02:45.197Z,3.90
2019-06-10T20:05:14.843Z,3.77
2019-06-10T20:08:03.506Z,6.10
2019-06-10T20:10:34.021Z,7.70
2019-06-10T20:13:03.565Z,4.00
2019-06-10T20:15:32.926Z,3.13
2019-06-10T20:18:02.910Z,3.87
2019-06-10T20:20:54.023Z,3.80
2019-06-10T20:23:45.751Z,4.30
2019-06-10T20:26:14.181Z,3.93
2019-06-10T20:28:45.313Z,4.03
2019-06-10T20:31:14.403Z,4.33
2019-06-10T20:33:44.710Z,4.07
2019-06-10T20:36:21.953Z,4.27
2019-06-10T20:38:47.238Z,4.20
2019-06-10T20:41:16.015Z,4.33
2019-06-10T20:43:57.741Z,4.93
2019-06-10T20:46:26.984Z,5.13
2019-06-10T20:48:56.302Z,5.60
2019-06-10T20:51:27.267Z,5.83
2019-06-10T20:53:56.509Z,6.80
2019-06-10T20:56:25.926Z,5.33
2019-06-10T20:59:02.713Z,5.10
2019-06-10T21:01:33.505Z,4.87
2019-06-10T21:04:23.015Z,5.67
2019-06-10T21:06:54.198Z,5.50
2019-06-10T21:09:25.334Z,5.27
2019-06-10T21:11:54.659Z,5.30
2019-06-10T21:14:24.149Z,5.60
2019-06-10T21:16:53.758Z,5.60
2019-06-10T21:19:23.488Z,5.47
2019-06-10T21:21:54.716Z,6.60
2019-06-10T21:24:23.879Z,7.83
2019-06-10T21:26:54.736Z,8.70
2019-06-10T21:29:24.359Z,11.67
2019-06-10T21:31:54.868Z,11.83
2019-06-10T21:34:24.588Z,12.70
2019-06-10T21:36:54.475Z,11.70
2019-06-10T21:39:24.183Z,11.07
2019-06-10T21:41:54.633Z,12.30
2019-06-10T21:44:24.187Z,11.43
2019-06-10T21:46:53.535Z,10.47
2019-06-10T21:49:27.416Z,11.07
2019-06-10T21:51:57.335Z,10.37
2019-06-10T21:54:26.724Z,9.50
2019-06-10T21:56:56.003Z,10.50
2019-06-10T21:59:25.345Z,10.00
2019-06-10T22:01:54.678Z,10.23
2019-06-10T22:04:24.000Z,8.80
2019-06-10T22:06:55.967Z,9.50
2019-06-10T22:09:24.295Z,10.10
2019-06-10T22:11:55.643Z,9.50
2019-06-10T22:14:24.653Z,9.87
2019-06-10T22:16:56.209Z,11.07
2019-06-10T22:19:25.013Z,9.50
2019-06-10T22:21:56.445Z,11.07
2019-06-10T22:24:25.250Z,10.70
2019-06-10T22:26:55.196Z,10.60
2019-06-10T22:29:25.493Z,11.57
2019-06-10T22:31:55.743Z,12.30
2019-06-10T22:34:25.794Z,11.10
2019-06-10T22:36:56.159Z,10.90
2019-06-10T22:39:26.022Z,11.47
2019-06-10T22:41:56.849Z,12.20
2019-06-10T22:44:26.493Z,13.30
2019-06-10T22:46:57.299Z,12.40
2019-06-10T22:49:46.146Z,14.10
2019-06-10T22:52:15.537Z,12.30
2019-06-10T22:54:44.885Z,12.40
2019-06-10T22:57:14.145Z,13.70
2019-06-10T22:59:43.436Z,14.07
2019-06-10T23:02:13.147Z,12.77
2019-06-10T23:04:43.421Z,12.33
2019-06-10T23:07:13.295Z,14.30
2019-06-10T23:09:43.022Z,14.10
2019-06-10T23:12:12.359Z,13.90
2019-06-10T23:14:43.367Z,12.57
2019-06-10T23:17:14.222Z,12.90
2019-06-10T23:19:43.706Z,12.20
2019-06-10T23:22:12.956Z,13.80
2019-06-10T23:24:42.641Z,12.90
2019-06-10T23:27:13.118Z,12.47
2019-06-10T23:29:42.833Z,12.70
2019-06-10T23:32:12.943Z,12.20
2019-06-10T23:34:42.513Z,13.60
2019-06-10T23:37:12.599Z,13.40
2019-06-10T23:39:42.626Z,13.33
2019-06-10T23:42:12.292Z,13.80
2019-06-10T23:44:41.704Z,12.80
2019-06-10T23:47:12.735Z,12.00
2019-06-10T23:50:04.225Z,12.40
2019-06-10T23:52:32.981Z,12.40
2019-06-10T23:55:04.500Z,11.67
2019-06-10T23:57:34.129Z,13.53
